Pagina principale
METAR-TAF:

METAR-TAF

Aeroporti :

Colmar, Francia

latitudine: 48-06-37N, longitudine: 7-21-33E, altezza: 191 m

Osservazione

Il bollettino è stato emesso 31 minuti fa, alle 23:30 UTC
Vento 3 kt da direzioni variabili
Temperature 9°C
Umidità 71%
Pressione 1023 hPa
Visibilità: 7000 m
Nuvoloso ad un'altezza di 5800 ft

METAR: LFGA 242330Z AUTO VRB03KT 7000 BKN058 09/04 Q1023

Ora: 01:01 (00:01 UTC)


TAF: mancante

Osservazioni e previsioni meteorologiche di più di 4000 aeroporti (messaggi METAR e TAF).

Le stazioni disponibili sono rappresentate dai dischi gialli e rossi sulla carta.

Puntare il mouse per vedere il nome della stazione.

Clicca sopra per visualizzare le osservazioni e previsioni meteorologiche.

Per cambiare la mappa : fare clic sui pulsanti verdi con una croce nera per ingrandire, il pulsante verde con un trattino per diminuire, o sulla freccia verde per le mappe adiacenti.


METAR-TAF: